Main page
METAR-TAF:

METAR-TAF

Airports :

Carlisle Lake District Airport

Carlisle, England

latitude: 54-56-15N, longitude: 002-48-33W, elevation: 57 m

Current weather observation

The report was made 5 hours and 8 minutes ago, at 17:50 UTC
Wind 9 kt from the East, varying between East/Northeast and Southeast
Temperature 5°C
Humidity 81%
Pressure 1003 hPa
Visibility 10 km or more
Scattered clouds at a height of 2200 ft

METAR: EGNC 211750Z 10009KT 070V140 9999 SCT022 05/02 Q1003

Time: 22:58 (22:58 UTC)

Forecast

The report was made 9 hours and 3 minutes ago, at 13:55 UTC
Forecast valid from 21 at 15 UTC to 21 at 18 UTC
Wind 9 kt from the East
Visibility 10 km or more
Scattered clouds at a height of 2500 ft

TAF: EGNC 211355Z 2115/2118 09009KT 9999 SCT025

Weather observations and forecasts of more than 4000 airports (METAR and TAF reports).

The available stations are represented by yellow and red dots on the map.

Hover mouse over dot to see the name of the station.

Then click to see weather observations and forecasts.

To change the map : click on the green buttons with a black cross to zoom in, on the green button with a dash to zoom out, or on the green arrows for adjacent maps.


METAR-TAF: